sensor_id;sensor_type;location;lat;lon;timestamp;temperature;humidity
40434;DHT22;26146;51.114;5.654;2022-11-06T00:01:46;10.70;99.90
40434;DHT22;26146;51.114;5.654;2022-11-06T00:05:47;10.60;99.90
40434;DHT22;26146;51.114;5.654;2022-11-06T00:10:07;10.70;99.90
40434;DHT22;26146;51.114;5.654;2022-11-06T00:14:08;10.50;99.90
40434;DHT22;26146;51.114;5.654;2022-11-06T00:18:12;10.50;99.90
40434;DHT22;26146;51.114;5.654;2022-11-06T00:22:15;10.50;99.90
40434;DHT22;26146;51.114;5.654;2022-11-06T00:26:19;10.40;99.90
40434;DHT22;26146;51.114;5.654;2022-11-06T00:30:20;10.40;99.90
40434;DHT22;26146;51.114;5.654;2022-11-06T00:34:21;10.40;99.90
40434;DHT22;26146;51.114;5.654;2022-11-06T00:38:22;10.40;99.90
40434;DHT22;26146;51.114;5.654;2022-11-06T00:42:23;10.60;99.90
40434;DHT22;26146;51.114;5.654;2022-11-06T00:46:24;10.60;99.90
40434;DHT22;26146;51.114;5.654;2022-11-06T00:50:25;10.40;99.90
40434;DHT22;26146;51.114;5.654;2022-11-06T00:54:26;10.40;99.90
40434;DHT22;26146;51.114;5.654;2022-11-06T00:58:30;10.40;99.90
40434;DHT22;26146;51.114;5.654;2022-11-06T01:02:31;10.40;99.90
40434;DHT22;26146;51.114;5.654;2022-11-06T01:06:36;10.50;99.90
40434;DHT22;26146;51.114;5.654;2022-11-06T01:10:37;10.40;99.90
40434;DHT22;26146;51.114;5.654;2022-11-06T01:14:38;10.40;99.90
40434;DHT22;26146;51.114;5.654;2022-11-06T01:18:41;10.40;99.90
40434;DHT22;26146;51.114;5.654;2022-11-06T01:22:42;10.30;99.90
40434;DHT22;26146;51.114;5.654;2022-11-06T01:26:46;10.40;99.90
40434;DHT22;26146;51.114;5.654;2022-11-06T01:30:47;10.40;99.90
40434;DHT22;26146;51.114;5.654;2022-11-06T01:34:49;10.40;99.90
40434;DHT22;26146;51.114;5.654;2022-11-06T01:38:52;10.40;99.90
40434;DHT22;26146;51.114;5.654;2022-11-06T01:42:53;10.40;99.90
40434;DHT22;26146;51.114;5.654;2022-11-06T01:46:54;10.50;99.90
40434;DHT22;26146;51.114;5.654;2022-11-06T01:50:59;10.40;99.90
40434;DHT22;26146;51.114;5.654;2022-11-06T01:55:13;10.40;99.90
40434;DHT22;26146;51.114;5.654;2022-11-06T01:59:17;10.20;99.90
40434;DHT22;26146;51.114;5.654;2022-11-06T02:03:19;10.20;99.90
40434;DHT22;26146;51.114;5.654;2022-11-06T02:07:20;10.30;99.90
40434;DHT22;26146;51.114;5.654;2022-11-06T02:11:21;10.50;99.90
40434;DHT22;26146;51.114;5.654;2022-11-06T02:15:36;10.60;99.90
40434;DHT22;26146;51.114;5.654;2022-11-06T02:20:04;10.90;99.90
40434;DHT22;26146;51.114;5.654;2022-11-06T02:28:23;10.90;99.90
40434;DHT22;26146;51.114;5.654;2022-11-06T02:32:33;11.00;99.90
40434;DHT22;26146;51.114;5.654;2022-11-06T02:36:42;11.00;99.90
40434;DHT22;26146;51.114;5.654;2022-11-06T02:40:49;11.10;99.90
40434;DHT22;26146;51.114;5.654;2022-11-06T02:44:56;11.10;99.90
40434;DHT22;26146;51.114;5.654;2022-11-06T02:49:06;11.20;99.90
40434;DHT22;26146;51.114;5.654;2022-11-06T02:53:12;11.30;99.90
40434;DHT22;26146;51.114;5.654;2022-11-06T02:57:16;11.20;99.90
40434;DHT22;26146;51.114;5.654;2022-11-06T03:01:25;11.30;99.90
40434;DHT22;26146;51.114;5.654;2022-11-06T03:05:48;11.30;99.90
40434;DHT22;26146;51.114;5.654;2022-11-06T03:09:51;11.30;99.90
40434;DHT22;26146;51.114;5.654;2022-11-06T03:14:08;11.40;99.90
40434;DHT22;26146;51.114;5.654;2022-11-06T03:18:15;11.50;99.90
40434;DHT22;26146;51.114;5.654;2022-11-06T03:22:53;11.50;99.90
40434;DHT22;26146;51.114;5.654;2022-11-06T03:26:55;11.30;99.90
40434;DHT22;26146;51.114;5.654;2022-11-06T03:31:07;11.40;99.90
40434;DHT22;26146;51.114;5.654;2022-11-06T03:39:40;11.60;99.90
40434;DHT22;26146;51.114;5.654;2022-11-06T03:43:43;11.60;99.90
40434;DHT22;26146;51.114;5.654;2022-11-06T03:47:51;11.50;99.90
40434;DHT22;26146;51.114;5.654;2022-11-06T03:51:59;11.50;99.90
40434;DHT22;26146;51.114;5.654;2022-11-06T03:56:08;11.40;99.90
40434;DHT22;26146;51.114;5.654;2022-11-06T04:00:12;11.40;99.90
40434;DHT22;26146;51.114;5.654;2022-11-06T04:04:29;11.30;99.90
40434;DHT22;26146;51.114;5.654;2022-11-06T04:08:32;11.20;99.90
40434;DHT22;26146;51.114;5.654;2022-11-06T04:12:54;11.20;99.90
40434;DHT22;26146;51.114;5.654;2022-11-06T04:17:16;11.20;99.90
40434;DHT22;26146;51.114;5.654;2022-11-06T04:26:36;10.90;99.90
40434;DHT22;26146;51.114;5.654;2022-11-06T04:30:50;11.00;99.90
40434;DHT22;26146;51.114;5.654;2022-11-06T04:43:43;10.80;99.90
40434;DHT22;26146;51.114;5.654;2022-11-06T04:47:46;10.80;99.90
40434;DHT22;26146;51.114;5.654;2022-11-06T04:51:48;10.70;99.90
40434;DHT22;26146;51.114;5.654;2022-11-06T04:55:52;10.60;99.90
40434;DHT22;26146;51.114;5.654;2022-11-06T04:59:56;10.60;99.90
40434;DHT22;26146;51.114;5.654;2022-11-06T05:03:57;10.50;99.90
40434;DHT22;26146;51.114;5.654;2022-11-06T05:08:01;10.60;99.90
40434;DHT22;26146;51.114;5.654;2022-11-06T05:12:02;10.50;99.90
40434;DHT22;26146;51.114;5.654;2022-11-06T05:16:03;10.50;99.90
40434;DHT22;26146;51.114;5.654;2022-11-06T05:20:05;10.50;99.90
40434;DHT22;26146;51.114;5.654;2022-11-06T05:24:06;10.50;99.90
40434;DHT22;26146;51.114;5.654;2022-11-06T05:28:07;10.70;99.90
40434;DHT22;26146;51.114;5.654;2022-11-06T05:32:08;10.70;99.90
40434;DHT22;26146;51.114;5.654;2022-11-06T05:36:12;10.80;99.90
40434;DHT22;26146;51.114;5.654;2022-11-06T05:40:13;10.90;99.90
40434;DHT22;26146;51.114;5.654;2022-11-06T05:44:14;10.90;99.90
40434;DHT22;26146;51.114;5.654;2022-11-06T05:48:15;10.80;99.90
40434;DHT22;26146;51.114;5.654;2022-11-06T05:52:16;10.70;99.90
40434;DHT22;26146;51.114;5.654;2022-11-06T05:56:17;10.70;99.90
40434;DHT22;26146;51.114;5.654;2022-11-06T06:00:18;10.70;99.90
40434;DHT22;26146;51.114;5.654;2022-11-06T06:04:19;10.80;99.90
40434;DHT22;26146;51.114;5.654;2022-11-06T06:08:20;10.90;99.90
40434;DHT22;26146;51.114;5.654;2022-11-06T06:12:20;11.00;99.90
40434;DHT22;26146;51.114;5.654;2022-11-06T06:16:24;11.00;99.90
40434;DHT22;26146;51.114;5.654;2022-11-06T06:20:27;11.10;99.90
40434;DHT22;26146;51.114;5.654;2022-11-06T06:24:28;11.10;99.90
40434;DHT22;26146;51.114;5.654;2022-11-06T06:28:29;11.20;99.90
40434;DHT22;26146;51.114;5.654;2022-11-06T06:32:30;11.20;99.90
40434;DHT22;26146;51.114;5.654;2022-11-06T06:36:31;11.20;99.90
40434;DHT22;26146;51.114;5.654;2022-11-06T06:40:32;11.30;99.90
40434;DHT22;26146;51.114;5.654;2022-11-06T06:44:35;11.30;99.90
40434;DHT22;26146;51.114;5.654;2022-11-06T06:48:36;11.30;99.90
40434;DHT22;26146;51.114;5.654;2022-11-06T06:52:37;11.20;99.90
40434;DHT22;26146;51.114;5.654;2022-11-06T06:56:38;11.10;99.90
40434;DHT22;26146;51.114;5.654;2022-11-06T07:00:39;11.20;99.90
40434;DHT22;26146;51.114;5.654;2022-11-06T07:04:40;11.30;99.90
40434;DHT22;26146;51.114;5.654;2022-11-06T07:08:41;11.10;99.90
40434;DHT22;26146;51.114;5.654;2022-11-06T07:12:44;10.90;99.90
40434;DHT22;26146;51.114;5.654;2022-11-06T07:16:47;10.90;99.90
40434;DHT22;26146;51.114;5.654;2022-11-06T07:20:48;11.00;99.90
40434;DHT22;26146;51.114;5.654;2022-11-06T07:24:49;11.00;99.90
40434;DHT22;26146;51.114;5.654;2022-11-06T07:28:50;11.00;99.90
40434;DHT22;26146;51.114;5.654;2022-11-06T07:32:51;10.90;99.90
40434;DHT22;26146;51.114;5.654;2022-11-06T07:36:52;11.30;99.90
40434;DHT22;26146;51.114;5.654;2022-11-06T07:40:59;11.50;99.90
40434;DHT22;26146;51.114;5.654;2022-11-06T07:45:00;11.50;99.90
40434;DHT22;26146;51.114;5.654;2022-11-06T07:49:01;11.90;99.90
40434;DHT22;26146;51.114;5.654;2022-11-06T07:53:05;12.00;99.90
40434;DHT22;26146;51.114;5.654;2022-11-06T07:57:06;12.20;99.90
40434;DHT22;26146;51.114;5.654;2022-11-06T08:01:13;12.30;99.90
40434;DHT22;26146;51.114;5.654;2022-11-06T08:05:14;12.20;99.90
40434;DHT22;26146;51.114;5.654;2022-11-06T08:09:15;12.20;99.90
40434;DHT22;26146;51.114;5.654;2022-11-06T08:13:17;12.50;99.90
40434;DHT22;26146;51.114;5.654;2022-11-06T08:17:18;12.30;99.90
40434;DHT22;26146;51.114;5.654;2022-11-06T08:21:19;12.30;99.90
40434;DHT22;26146;51.114;5.654;2022-11-06T08:25:20;12.40;99.90
40434;DHT22;26146;51.114;5.654;2022-11-06T08:29:21;12.30;99.90
40434;DHT22;26146;51.114;5.654;2022-11-06T08:33:22;12.30;99.90
40434;DHT22;26146;51.114;5.654;2022-11-06T08:37:23;12.30;99.90
40434;DHT22;26146;51.114;5.654;2022-11-06T08:41:24;12.50;99.90
40434;DHT22;26146;51.114;5.654;2022-11-06T08:45:25;12.30;99.90
40434;DHT22;26146;51.114;5.654;2022-11-06T08:49:26;12.40;99.90
40434;DHT22;26146;51.114;5.654;2022-11-06T08:53:30;12.50;99.90
40434;DHT22;26146;51.114;5.654;2022-11-06T08:57:31;12.60;99.90
40434;DHT22;26146;51.114;5.654;2022-11-06T09:01:32;12.80;99.90
40434;DHT22;26146;51.114;5.654;2022-11-06T09:05:33;12.70;99.90
40434;DHT22;26146;51.114;5.654;2022-11-06T09:09:33;13.10;99.90
40434;DHT22;26146;51.114;5.654;2022-11-06T09:13:37;13.30;99.90
40434;DHT22;26146;51.114;5.654;2022-11-06T09:17:45;13.70;99.90
40434;DHT22;26146;51.114;5.654;2022-11-06T09:21:46;13.80;99.90
40434;DHT22;26146;51.114;5.654;2022-11-06T09:25:47;13.70;99.90
40434;DHT22;26146;51.114;5.654;2022-11-06T09:29:48;13.90;99.90
40434;DHT22;26146;51.114;5.654;2022-11-06T09:33:49;14.00;99.90
40434;DHT22;26146;51.114;5.654;2022-11-06T09:37:51;14.00;99.90
40434;DHT22;26146;51.114;5.654;2022-11-06T09:41:58;13.90;99.90
40434;DHT22;26146;51.114;5.654;2022-11-06T09:46:18;13.60;99.90
40434;DHT22;26146;51.114;5.654;2022-11-06T09:50:28;13.50;99.90
40434;DHT22;26146;51.114;5.654;2022-11-06T09:54:47;13.60;99.90
40434;DHT22;26146;51.114;5.654;2022-11-06T09:58:51;13.50;99.90
40434;DHT22;26146;51.114;5.654;2022-11-06T10:03:02;13.50;99.90
40434;DHT22;26146;51.114;5.654;2022-11-06T10:07:21;13.50;99.90
40434;DHT22;26146;51.114;5.654;2022-11-06T10:15:53;13.80;99.90
40434;DHT22;26146;51.114;5.654;2022-11-06T10:20:17;13.80;99.90
40434;DHT22;26146;51.114;5.654;2022-11-06T10:24:23;14.00;99.90
40434;DHT22;26146;51.114;5.654;2022-11-06T10:33:19;14.30;99.90
40434;DHT22;26146;51.114;5.654;2022-11-06T10:37:27;14.30;99.90
40434;DHT22;26146;51.114;5.654;2022-11-06T10:41:32;14.30;99.90
40434;DHT22;26146;51.114;5.654;2022-11-06T10:45:35;14.20;99.90
40434;DHT22;26146;51.114;5.654;2022-11-06T10:50:00;14.30;99.90
40434;DHT22;26146;51.114;5.654;2022-11-06T10:54:27;14.40;99.90
40434;DHT22;26146;51.114;5.654;2022-11-06T10:58:31;14.40;99.90
40434;DHT22;26146;51.114;5.654;2022-11-06T11:02:34;14.80;99.90
40434;DHT22;26146;51.114;5.654;2022-11-06T11:06:40;14.80;99.90
40434;DHT22;26146;51.114;5.654;2022-11-06T11:10:41;14.80;99.90
40434;DHT22;26146;51.114;5.654;2022-11-06T11:14:42;15.00;99.90
40434;DHT22;26146;51.114;5.654;2022-11-06T11:18:46;15.10;99.80
40434;DHT22;26146;51.114;5.654;2022-11-06T11:23:21;15.20;99.80
40434;DHT22;26146;51.114;5.654;2022-11-06T11:27:25;15.30;99.80
40434;DHT22;26146;51.114;5.654;2022-11-06T11:31:33;15.10;99.60
40434;DHT22;26146;51.114;5.654;2022-11-06T11:35:34;15.00;99.90
40434;DHT22;26146;51.114;5.654;2022-11-06T11:39:44;14.90;99.90
40434;DHT22;26146;51.114;5.654;2022-11-06T11:44:03;15.10;99.90
40434;DHT22;26146;51.114;5.654;2022-11-06T11:48:11;15.20;99.70
40434;DHT22;26146;51.114;5.654;2022-11-06T11:52:17;15.40;99.40
40434;DHT22;26146;51.114;5.654;2022-11-06T11:56:20;15.20;99.10
40434;DHT22;26146;51.114;5.654;2022-11-06T12:00:22;15.00;98.90
40434;DHT22;26146;51.114;5.654;2022-11-06T12:04:30;14.70;99.10
40434;DHT22;26146;51.114;5.654;2022-11-06T12:08:32;14.80;99.30
40434;DHT22;26146;51.114;5.654;2022-11-06T12:12:38;14.80;99.40
40434;DHT22;26146;51.114;5.654;2022-11-06T12:16:39;14.90;99.40
40434;DHT22;26146;51.114;5.654;2022-11-06T12:25:29;15.20;99.20
40434;DHT22;26146;51.114;5.654;2022-11-06T12:34:37;15.10;98.60
40434;DHT22;26146;51.114;5.654;2022-11-06T12:38:47;15.00;99.70
40434;DHT22;26146;51.114;5.654;2022-11-06T12:43:07;15.10;99.50
40434;DHT22;26146;51.114;5.654;2022-11-06T12:47:19;15.00;99.30
40434;DHT22;26146;51.114;5.654;2022-11-06T12:55:55;15.00;99.40
40434;DHT22;26146;51.114;5.654;2022-11-06T13:00:18;14.80;99.70
40434;DHT22;26146;51.114;5.654;2022-11-06T13:17:27;14.60;99.50
40434;DHT22;26146;51.114;5.654;2022-11-06T13:25:59;14.40;99.90
40434;DHT22;26146;51.114;5.654;2022-11-06T13:30:21;14.40;99.90
40434;DHT22;26146;51.114;5.654;2022-11-06T13:34:45;14.30;99.90
40434;DHT22;26146;51.114;5.654;2022-11-06T13:38:51;14.10;99.90
40434;DHT22;26146;51.114;5.654;2022-11-06T13:43:02;13.90;99.90
40434;DHT22;26146;51.114;5.654;2022-11-06T13:47:19;13.90;99.90
40434;DHT22;26146;51.114;5.654;2022-11-06T14:00:20;13.50;99.90
40434;DHT22;26146;51.114;5.654;2022-11-06T14:09:19;13.30;99.90
40434;DHT22;26146;51.114;5.654;2022-11-06T14:13:24;13.30;99.90
40434;DHT22;26146;51.114;5.654;2022-11-06T14:17:26;13.00;99.90
40434;DHT22;26146;51.114;5.654;2022-11-06T14:21:48;13.00;99.90
40434;DHT22;26146;51.114;5.654;2022-11-06T14:26:02;12.70;99.90
40434;DHT22;26146;51.114;5.654;2022-11-06T14:34:35;12.70;99.90
40434;DHT22;26146;51.114;5.654;2022-11-06T14:38:37;12.60;99.90
40434;DHT22;26146;51.114;5.654;2022-11-06T14:42:44;12.70;99.90
40434;DHT22;26146;51.114;5.654;2022-11-06T14:46:50;12.70;99.90
40434;DHT22;26146;51.114;5.654;2022-11-06T14:50:52;12.50;99.90
40434;DHT22;26146;51.114;5.654;2022-11-06T14:54:59;12.30;99.90
40434;DHT22;26146;51.114;5.654;2022-11-06T15:03:07;12.00;99.90
40434;DHT22;26146;51.114;5.654;2022-11-06T15:07:54;11.90;99.90
40434;DHT22;26146;51.114;5.654;2022-11-06T15:12:03;11.90;99.90
40434;DHT22;26146;51.114;5.654;2022-11-06T15:16:09;11.70;99.90
40434;DHT22;26146;51.114;5.654;2022-11-06T15:20:18;11.70;99.90
40434;DHT22;26146;51.114;5.654;2022-11-06T15:24:43;11.50;99.90
40434;DHT22;26146;51.114;5.654;2022-11-06T15:29:24;11.60;99.90
40434;DHT22;26146;51.114;5.654;2022-11-06T15:33:27;11.60;99.90
40434;DHT22;26146;51.114;5.654;2022-11-06T15:41:43;11.80;99.90
40434;DHT22;26146;51.114;5.654;2022-11-06T15:45:44;11.90;99.90
40434;DHT22;26146;51.114;5.654;2022-11-06T15:49:45;11.70;99.90
40434;DHT22;26146;51.114;5.654;2022-11-06T15:53:46;11.50;99.90
40434;DHT22;26146;51.114;5.654;2022-11-06T15:57:47;11.40;99.90
40434;DHT22;26146;51.114;5.654;2022-11-06T16:01:48;11.40;99.90
40434;DHT22;26146;51.114;5.654;2022-11-06T16:05:50;11.40;99.90
40434;DHT22;26146;51.114;5.654;2022-11-06T16:09:52;11.30;99.90
40434;DHT22;26146;51.114;5.654;2022-11-06T16:13:53;11.40;99.90
40434;DHT22;26146;51.114;5.654;2022-11-06T16:18:03;11.50;99.90
40434;DHT22;26146;51.114;5.654;2022-11-06T16:22:10;11.40;99.90
40434;DHT22;26146;51.114;5.654;2022-11-06T16:26:18;11.40;99.90
40434;DHT22;26146;51.114;5.654;2022-11-06T16:30:21;11.30;99.90
40434;DHT22;26146;51.114;5.654;2022-11-06T16:34:41;11.30;99.90
40434;DHT22;26146;51.114;5.654;2022-11-06T16:38:48;11.30;99.90
40434;DHT22;26146;51.114;5.654;2022-11-06T16:43:01;11.30;99.90
40434;DHT22;26146;51.114;5.654;2022-11-06T16:51:14;11.10;99.90
40434;DHT22;26146;51.114;5.654;2022-11-06T16:55:28;11.00;99.90
40434;DHT22;26146;51.114;5.654;2022-11-06T16:59:32;11.10;99.90
40434;DHT22;26146;51.114;5.654;2022-11-06T17:03:46;11.00;99.90
40434;DHT22;26146;51.114;5.654;2022-11-06T17:07:48;11.10;99.90
40434;DHT22;26146;51.114;5.654;2022-11-06T17:12:09;11.00;99.90
40434;DHT22;26146;51.114;5.654;2022-11-06T17:16:16;11.00;99.90
40434;DHT22;26146;51.114;5.654;2022-11-06T17:20:18;10.80;99.90
40434;DHT22;26146;51.114;5.654;2022-11-06T17:24:19;10.80;99.90
40434;DHT22;26146;51.114;5.654;2022-11-06T17:28:26;10.90;99.90
40434;DHT22;26146;51.114;5.654;2022-11-06T17:32:27;10.90;99.90
40434;DHT22;26146;51.114;5.654;2022-11-06T17:36:29;10.90;99.90
40434;DHT22;26146;51.114;5.654;2022-11-06T17:40:33;10.90;99.90
40434;DHT22;26146;51.114;5.654;2022-11-06T17:44:36;10.90;99.90
40434;DHT22;26146;51.114;5.654;2022-11-06T17:48:55;10.90;99.90
40434;DHT22;26146;51.114;5.654;2022-11-06T17:52:56;10.80;99.90
40434;DHT22;26146;51.114;5.654;2022-11-06T17:57:00;10.60;99.90
40434;DHT22;26146;51.114;5.654;2022-11-06T18:01:11;10.60;99.90
40434;DHT22;26146;51.114;5.654;2022-11-06T18:05:12;10.60;99.90
40434;DHT22;26146;51.114;5.654;2022-11-06T18:09:15;10.70;99.90
40434;DHT22;26146;51.114;5.654;2022-11-06T18:13:16;10.80;99.90
40434;DHT22;26146;51.114;5.654;2022-11-06T18:17:17;10.90;99.90
40434;DHT22;26146;51.114;5.654;2022-11-06T18:21:19;10.80;99.90
40434;DHT22;26146;51.114;5.654;2022-11-06T18:25:20;10.90;99.90
40434;DHT22;26146;51.114;5.654;2022-11-06T18:29:21;11.00;99.90
40434;DHT22;26146;51.114;5.654;2022-11-06T18:33:22;10.90;99.90
40434;DHT22;26146;51.114;5.654;2022-11-06T18:37:23;11.00;99.90
40434;DHT22;26146;51.114;5.654;2022-11-06T18:41:25;11.10;99.90
40434;DHT22;26146;51.114;5.654;2022-11-06T18:45:26;11.10;99.90
40434;DHT22;26146;51.114;5.654;2022-11-06T18:49:27;11.20;99.90
40434;DHT22;26146;51.114;5.654;2022-11-06T18:53:28;11.20;99.90
40434;DHT22;26146;51.114;5.654;2022-11-06T18:57:32;11.20;99.90
40434;DHT22;26146;51.114;5.654;2022-11-06T19:01:33;11.20;99.90
40434;DHT22;26146;51.114;5.654;2022-11-06T19:05:37;11.20;99.90
40434;DHT22;26146;51.114;5.654;2022-11-06T19:09:38;11.20;99.90
40434;DHT22;26146;51.114;5.654;2022-11-06T19:13:39;11.10;99.90
40434;DHT22;26146;51.114;5.654;2022-11-06T19:17:40;11.30;99.90
40434;DHT22;26146;51.114;5.654;2022-11-06T19:21:43;11.50;99.90
40434;DHT22;26146;51.114;5.654;2022-11-06T19:25:47;11.40;99.90
40434;DHT22;26146;51.114;5.654;2022-11-06T19:29:48;11.40;99.90
40434;DHT22;26146;51.114;5.654;2022-11-06T19:33:49;11.40;99.90
40434;DHT22;26146;51.114;5.654;2022-11-06T19:37:50;11.50;99.90
40434;DHT22;26146;51.114;5.654;2022-11-06T19:41:54;11.50;99.90
40434;DHT22;26146;51.114;5.654;2022-11-06T19:46:00;11.50;99.90
40434;DHT22;26146;51.114;5.654;2022-11-06T19:50:01;11.60;99.90
40434;DHT22;26146;51.114;5.654;2022-11-06T19:54:03;11.40;99.90
40434;DHT22;26146;51.114;5.654;2022-11-06T19:58:05;11.40;99.90
40434;DHT22;26146;51.114;5.654;2022-11-06T20:02:06;11.40;99.90
40434;DHT22;26146;51.114;5.654;2022-11-06T20:06:07;11.60;99.90
40434;DHT22;26146;51.114;5.654;2022-11-06T20:10:08;11.70;99.90
40434;DHT22;26146;51.114;5.654;2022-11-06T20:14:10;11.70;99.90
40434;DHT22;26146;51.114;5.654;2022-11-06T20:18:11;11.60;99.90
40434;DHT22;26146;51.114;5.654;2022-11-06T20:22:12;11.60;99.90
40434;DHT22;26146;51.114;5.654;2022-11-06T20:26:13;11.70;99.90
40434;DHT22;26146;51.114;5.654;2022-11-06T20:30:14;11.70;99.90
40434;DHT22;26146;51.114;5.654;2022-11-06T20:34:15;11.70;99.90
40434;DHT22;26146;51.114;5.654;2022-11-06T20:38:16;11.90;99.90
40434;DHT22;26146;51.114;5.654;2022-11-06T20:42:17;11.80;99.90
40434;DHT22;26146;51.114;5.654;2022-11-06T20:46:19;11.80;99.90
40434;DHT22;26146;51.114;5.654;2022-11-06T20:50:20;11.90;99.90
40434;DHT22;26146;51.114;5.654;2022-11-06T20:54:21;11.90;99.90
40434;DHT22;26146;51.114;5.654;2022-11-06T20:58:23;11.90;99.90
40434;DHT22;26146;51.114;5.654;2022-11-06T21:02:24;11.90;99.90
40434;DHT22;26146;51.114;5.654;2022-11-06T21:06:26;11.80;99.90
40434;DHT22;26146;51.114;5.654;2022-11-06T21:10:27;11.70;99.90
40434;DHT22;26146;51.114;5.654;2022-11-06T21:14:28;11.70;99.90
40434;DHT22;26146;51.114;5.654;2022-11-06T21:18:30;11.60;99.90
40434;DHT22;26146;51.114;5.654;2022-11-06T21:26:35;11.90;99.90
40434;DHT22;26146;51.114;5.654;2022-11-06T21:30:44;11.70;99.90
40434;DHT22;26146;51.114;5.654;2022-11-06T21:34:45;11.80;99.90
40434;DHT22;26146;51.114;5.654;2022-11-06T21:38:46;11.80;99.90
40434;DHT22;26146;51.114;5.654;2022-11-06T21:42:47;11.60;99.90
40434;DHT22;26146;51.114;5.654;2022-11-06T21:46:48;11.60;99.90
40434;DHT22;26146;51.114;5.654;2022-11-06T21:50:49;11.60;99.90
40434;DHT22;26146;51.114;5.654;2022-11-06T21:54:50;11.80;99.90
40434;DHT22;26146;51.114;5.654;2022-11-06T21:59:12;11.70;99.90
40434;DHT22;26146;51.114;5.654;2022-11-06T22:03:14;11.90;99.90
40434;DHT22;26146;51.114;5.654;2022-11-06T22:07:15;12.00;99.90
40434;DHT22;26146;51.114;5.654;2022-11-06T22:15:18;12.20;99.90
40434;DHT22;26146;51.114;5.654;2022-11-06T22:19:19;12.20;99.90
40434;DHT22;26146;51.114;5.654;2022-11-06T22:23:20;12.20;99.90
40434;DHT22;26146;51.114;5.654;2022-11-06T22:27:21;12.30;99.90
40434;DHT22;26146;51.114;5.654;2022-11-06T22:31:22;12.40;99.90
40434;DHT22;26146;51.114;5.654;2022-11-06T22:35:26;12.50;99.90
40434;DHT22;26146;51.114;5.654;2022-11-06T22:39:27;12.40;99.90
40434;DHT22;26146;51.114;5.654;2022-11-06T22:43:30;12.40;99.90
40434;DHT22;26146;51.114;5.654;2022-11-06T22:47:31;12.30;99.90
40434;DHT22;26146;51.114;5.654;2022-11-06T22:51:32;12.20;99.90
40434;DHT22;26146;51.114;5.654;2022-11-06T22:55:36;12.10;99.90
40434;DHT22;26146;51.114;5.654;2022-11-06T22:59:37;12.20;99.90
40434;DHT22;26146;51.114;5.654;2022-11-06T23:03:38;12.20;99.90
40434;DHT22;26146;51.114;5.654;2022-11-06T23:07:39;12.20;99.90
40434;DHT22;26146;51.114;5.654;2022-11-06T23:11:40;12.10;99.90
40434;DHT22;26146;51.114;5.654;2022-11-06T23:15:46;12.10;99.90
40434;DHT22;26146;51.114;5.654;2022-11-06T23:19:47;12.00;99.90
40434;DHT22;26146;51.114;5.654;2022-11-06T23:23:47;11.90;99.90
40434;DHT22;26146;51.114;5.654;2022-11-06T23:27:48;11.90;99.90
40434;DHT22;26146;51.114;5.654;2022-11-06T23:31:49;11.80;99.90
40434;DHT22;26146;51.114;5.654;2022-11-06T23:35:51;11.80;99.90
40434;DHT22;26146;51.114;5.654;2022-11-06T23:39:52;11.70;99.90
40434;DHT22;26146;51.114;5.654;2022-11-06T23:43:53;11.70;99.90
40434;DHT22;26146;51.114;5.654;2022-11-06T23:47:56;11.60;99.90
40434;DHT22;26146;51.114;5.654;2022-11-06T23:51:57;11.60;99.90
40434;DHT22;26146;51.114;5.654;2022-11-06T23:56:05;11.60;99.90
